createdAt,value
2023-02-16T00:01:33.083Z,2.70
2023-02-16T00:04:04.978Z,2.70
2023-02-16T00:06:35.819Z,2.70
2023-02-16T00:09:05.153Z,2.70
2023-02-16T00:11:56.541Z,2.70
2023-02-16T00:14:27.533Z,2.80
2023-02-16T00:16:57.847Z,2.80
2023-02-16T00:19:30.250Z,2.80
2023-02-16T00:22:01.881Z,2.90
2023-02-16T00:24:35.021Z,2.90
2023-02-16T00:27:04.330Z,3.00
2023-02-16T00:29:56.649Z,3.00
2023-02-16T00:32:34.484Z,3.10
2023-02-16T00:35:12.435Z,3.20
2023-02-16T00:37:41.453Z,3.20
2023-02-16T00:40:14.526Z,3.30
2023-02-16T00:42:46.737Z,3.30
2023-02-16T00:45:22.395Z,3.30
2023-02-16T00:47:54.081Z,3.30
2023-02-16T00:50:27.723Z,3.30
2023-02-16T00:52:58.743Z,3.30
2023-02-16T00:55:30.867Z,3.30
2023-02-16T00:58:06.726Z,3.40
2023-02-16T01:00:39.617Z,3.40
2023-02-16T01:03:13.025Z,3.40
2023-02-16T01:05:41.932Z,3.40
2023-02-16T01:08:30.879Z,3.40
2023-02-16T01:11:10.440Z,3.40
2023-02-16T01:13:46.022Z,3.40
2023-02-16T01:16:19.499Z,3.40
2023-02-16T01:18:49.398Z,3.50
2023-02-16T01:21:18.993Z,3.50
2023-02-16T01:23:47.811Z,3.40
2023-02-16T01:26:18.885Z,3.40
2023-02-16T01:28:49.402Z,3.40
2023-02-16T01:31:19.909Z,3.40
2023-02-16T01:33:48.899Z,3.40
2023-02-16T01:36:24.989Z,3.30
2023-02-16T01:38:54.426Z,3.40
2023-02-16T01:41:31.719Z,3.30
2023-02-16T01:44:05.619Z,3.30
2023-02-16T01:46:45.691Z,3.30
2023-02-16T01:49:16.109Z,3.40
2023-02-16T01:51:54.131Z,3.30
2023-02-16T01:54:45.846Z,3.30
2023-02-16T01:57:28.838Z,3.20
2023-02-16T02:00:09.254Z,3.20
2023-02-16T02:02:52.578Z,3.20
2023-02-16T02:05:36.015Z,3.20
2023-02-16T02:08:19.403Z,3.20
2023-02-16T02:10:59.312Z,3.20
2023-02-16T02:13:34.313Z,3.20
2023-02-16T02:16:07.082Z,3.10
2023-02-16T02:18:38.104Z,3.20
2023-02-16T02:22:10.613Z,3.20
2023-02-16T02:25:15.624Z,3.20
2023-02-16T02:27:56.716Z,3.20
2023-02-16T02:30:40.959Z,3.20
2023-02-16T02:33:22.752Z,3.20
2023-02-16T02:35:59.552Z,3.20
2023-02-16T02:38:39.678Z,3.20
2023-02-16T02:41:17.368Z,3.20
2023-02-16T02:43:52.923Z,3.30
2023-02-16T02:46:26.890Z,3.30
2023-02-16T02:48:56.430Z,3.30
2023-02-16T02:51:31.945Z,3.30
2023-02-16T02:54:25.572Z,3.30
2023-02-16T02:57:22.197Z,3.30
2023-02-16T03:00:18.913Z,3.30
2023-02-16T03:02:55.328Z,3.40
2023-02-16T03:05:28.028Z,3.10
2023-02-16T03:08:06.657Z,3.40
2023-02-16T03:10:56.834Z,3.40
2023-02-16T03:13:30.224Z,3.40
2023-02-16T03:16:04.668Z,3.40
2023-02-16T03:19:05.502Z,3.40
2023-02-16T03:21:53.334Z,3.40
2023-02-16T03:24:43.361Z,3.40
2023-02-16T03:27:36.007Z,3.40
2023-02-16T03:30:11.731Z,3.40
2023-02-16T03:32:42.503Z,3.40
2023-02-16T03:35:12.913Z,3.40
2023-02-16T03:37:59.336Z,3.40
2023-02-16T03:40:51.786Z,3.50
2023-02-16T03:43:26.161Z,3.50
2023-02-16T03:45:56.811Z,3.40
2023-02-16T03:48:27.436Z,3.40
2023-02-16T03:50:56.483Z,3.40
2023-02-16T03:53:25.344Z,3.40
2023-02-16T03:55:54.565Z,3.40
2023-02-16T03:58:26.794Z,3.40
2023-02-16T04:00:55.829Z,3.50
2023-02-16T04:03:24.794Z,3.50
2023-02-16T04:05:56.771Z,3.50
2023-02-16T04:08:26.363Z,3.50
2023-02-16T04:10:58.034Z,3.50
2023-02-16T04:13:26.391Z,3.50
2023-02-16T04:15:56.467Z,3.50
2023-02-16T04:18:25.607Z,3.50
2023-02-16T04:20:56.890Z,3.50
2023-02-16T04:23:25.758Z,3.50
2023-02-16T04:25:54.705Z,3.50
2023-02-16T04:28:23.524Z,3.50
2023-02-16T04:30:53.345Z,3.50
2023-02-16T04:33:22.300Z,3.50
2023-02-16T04:35:51.168Z,3.50
2023-02-16T04:38:21.475Z,3.50
2023-02-16T04:40:50.292Z,3.50
2023-02-16T04:43:19.065Z,3.50
2023-02-16T04:45:47.961Z,3.50
2023-02-16T04:48:16.967Z,3.50
2023-02-16T04:50:45.772Z,3.50
2023-02-16T04:53:14.696Z,3.60
2023-02-16T04:55:48.743Z,3.60
2023-02-16T04:58:18.232Z,3.60
2023-02-16T05:00:48.766Z,3.60
2023-02-16T05:03:17.563Z,3.60
2023-02-16T05:05:46.761Z,3.60
2023-02-16T05:08:15.546Z,3.60
2023-02-16T05:10:44.848Z,3.60
2023-02-16T05:13:50.188Z,3.60
2023-02-16T05:16:21.376Z,3.60
2023-02-16T05:18:50.836Z,3.60
2023-02-16T05:21:35.951Z,3.60
2023-02-16T05:24:06.928Z,3.60
2023-02-16T05:26:36.888Z,3.60
2023-02-16T05:29:07.783Z,3.60
2023-02-16T05:31:44.694Z,3.70
2023-02-16T05:34:14.031Z,3.70
2023-02-16T05:36:46.752Z,3.70
2023-02-16T05:39:15.730Z,3.70
2023-02-16T05:41:44.587Z,3.70
2023-02-16T05:44:17.075Z,3.80
2023-02-16T05:46:52.419Z,3.80
2023-02-16T05:49:25.032Z,3.80
2023-02-16T05:51:54.145Z,3.80
2023-02-16T05:54:25.264Z,3.90
2023-02-16T05:56:55.607Z,3.90
2023-02-16T05:59:44.673Z,3.90
2023-02-16T06:02:13.754Z,3.90
2023-02-16T06:04:44.271Z,3.90
2023-02-16T06:07:15.001Z,3.90
2023-02-16T06:09:44.324Z,3.90
2023-02-16T06:12:13.113Z,4.00
2023-02-16T06:14:43.346Z,4.10
2023-02-16T06:17:12.357Z,4.40
2023-02-16T06:19:41.165Z,4.60
2023-02-16T06:22:09.993Z,4.80
2023-02-16T06:24:39.934Z,5.00
2023-02-16T06:27:08.906Z,5.20
2023-02-16T06:29:37.781Z,5.40
2023-02-16T06:32:08.296Z,5.60
2023-02-16T06:34:37.237Z,5.80
2023-02-16T06:37:06.022Z,5.90
2023-02-16T06:39:34.957Z,6.00
2023-02-16T06:42:04.069Z,6.10
2023-02-16T06:44:32.913Z,6.30
2023-02-16T06:47:01.849Z,6.50
2023-02-16T06:49:32.273Z,6.60
2023-02-16T06:52:01.547Z,6.70
2023-02-16T06:54:30.495Z,6.70
2023-02-16T06:56:59.341Z,6.60
2023-02-16T06:59:28.209Z,6.60
2023-02-16T07:01:57.020Z,6.60
2023-02-16T07:04:25.788Z,6.60
2023-02-16T07:06:56.152Z,6.70
2023-02-16T07:09:25.189Z,6.90
2023-02-16T07:11:54.603Z,7.20
2023-02-16T07:14:23.835Z,7.50
2023-02-16T07:16:52.858Z,7.70
2023-02-16T07:19:29.126Z,7.80
2023-02-16T07:21:59.944Z,7.90
2023-02-16T07:24:33.443Z,8.00
2023-02-16T07:27:02.437Z,8.00
2023-02-16T07:29:31.395Z,8.00
2023-02-16T07:32:00.340Z,8.20
2023-02-16T07:34:29.477Z,8.40
2023-02-16T07:36:59.984Z,8.70
2023-02-16T07:39:30.190Z,9.00
2023-02-16T07:42:11.105Z,9.20
2023-02-16T07:44:39.981Z,9.30
2023-02-16T07:47:16.692Z,9.40
2023-02-16T07:49:46.296Z,9.50
2023-02-16T07:52:16.665Z,9.70
2023-02-16T07:54:50.522Z,9.90
2023-02-16T07:57:20.610Z,10.00
2023-02-16T07:59:51.750Z,10.20
2023-02-16T08:02:21.481Z,10.50
2023-02-16T08:04:52.989Z,10.70
2023-02-16T08:07:34.079Z,11.00
2023-02-16T08:10:03.812Z,11.40
2023-02-16T08:12:32.667Z,11.70
2023-02-16T08:15:05.206Z,12.10
2023-02-16T08:17:35.411Z,12.50
2023-02-16T08:20:13.515Z,12.80
2023-02-16T08:22:45.066Z,13.10
2023-02-16T08:25:16.299Z,13.40
2023-02-16T08:27:45.251Z,13.70
2023-02-16T08:30:18.994Z,13.90
2023-02-16T08:32:51.009Z,14.10
2023-02-16T08:35:29.569Z,14.30
2023-02-16T08:38:02.554Z,14.50
2023-02-16T08:40:50.503Z,14.70
2023-02-16T08:43:20.108Z,14.80
2023-02-16T08:45:49.817Z,14.80
2023-02-16T08:48:18.738Z,14.90
2023-02-16T08:50:53.909Z,15.00
2023-02-16T08:53:25.470Z,15.10
2023-02-16T08:55:56.664Z,15.10
2023-02-16T08:58:26.637Z,15.00
2023-02-16T09:00:56.637Z,15.20
2023-02-16T09:03:25.968Z,15.40
2023-02-16T09:05:55.110Z,15.60
2023-02-16T09:08:25.359Z,15.80
2023-02-16T09:10:54.953Z,15.90
2023-02-16T09:13:23.825Z,16.20
2023-02-16T09:15:54.382Z,16.60
2023-02-16T09:18:23.272Z,16.90
2023-02-16T09:20:52.118Z,17.20
2023-02-16T09:23:37.432Z,17.40
2023-02-16T09:26:08.668Z,17.40
2023-02-16T09:28:39.521Z,17.30
2023-02-16T09:31:14.033Z,17.60
2023-02-16T09:34:04.165Z,17.90
2023-02-16T09:36:33.912Z,18.10
2023-02-16T09:39:02.821Z,18.20
2023-02-16T09:41:53.731Z,18.40
2023-02-16T09:44:30.676Z,18.50
2023-02-16T09:47:03.799Z,18.50
2023-02-16T09:49:37.344Z,18.40
2023-02-16T09:52:14.057Z,18.20
2023-02-16T09:54:49.637Z,18.20
2023-02-16T09:57:27.978Z,18.30
2023-02-16T10:00:08.719Z,18.60
2023-02-16T10:02:47.207Z,18.90
2023-02-16T10:05:25.804Z,19.10
2023-02-16T10:08:14.628Z,19.10
2023-02-16T10:10:51.292Z,19.20
2023-02-16T10:13:33.424Z,19.10
2023-02-16T10:16:03.797Z,19.10
2023-02-16T10:18:36.925Z,19.10
2023-02-16T10:21:15.509Z,19.20
2023-02-16T10:23:49.921Z,19.20
2023-02-16T10:26:24.766Z,19.20
2023-02-16T10:28:57.204Z,19.30
2023-02-16T10:31:31.753Z,19.40
2023-02-16T10:34:22.629Z,19.20
2023-02-16T10:37:24.118Z,19.10
2023-02-16T10:40:00.661Z,19.10
2023-02-16T10:42:39.796Z,19.20
2023-02-16T10:45:23.807Z,19.20
2023-02-16T10:47:53.895Z,19.40
2023-02-16T10:50:27.584Z,19.50
2023-02-16T10:53:00.163Z,19.60
2023-02-16T10:55:29.280Z,19.60
2023-02-16T10:58:02.260Z,19.60
2023-02-16T11:00:48.748Z,19.60
2023-02-16T11:03:19.446Z,19.60
2023-02-16T11:05:49.230Z,19.50
2023-02-16T11:08:19.560Z,19.50
2023-02-16T11:10:51.899Z,19.50
2023-02-16T11:13:31.672Z,19.50
2023-02-16T11:16:07.101Z,19.60
2023-02-16T11:18:38.465Z,19.70
2023-02-16T11:21:08.200Z,19.70
2023-02-16T11:23:38.262Z,19.70
2023-02-16T11:26:10.300Z,19.80
2023-02-16T11:28:40.606Z,19.80
2023-02-16T11:31:18.878Z,19.70
2023-02-16T11:33:59.217Z,19.60
2023-02-16T11:36:35.068Z,19.50
2023-02-16T11:39:10.897Z,19.40
2023-02-16T11:41:44.441Z,19.10
2023-02-16T11:44:27.176Z,18.70
2023-02-16T11:46:58.949Z,18.20
2023-02-16T11:49:34.153Z,17.60
2023-02-16T11:52:18.888Z,16.90
2023-02-16T11:54:51.321Z,16.30
2023-02-16T11:57:27.182Z,15.80
2023-02-16T11:59:57.652Z,15.40
2023-02-16T12:02:48.521Z,15.20
2023-02-16T12:05:28.418Z,14.90
2023-02-16T12:08:32.080Z,14.70
2023-02-16T12:11:18.191Z,14.50
2023-02-16T12:13:54.700Z,14.30
2023-02-16T12:16:31.942Z,14.20
2023-02-16T12:19:15.464Z,14.20
2023-02-16T12:21:48.893Z,14.20
2023-02-16T12:24:36.521Z,14.20
2023-02-16T12:27:08.808Z,14.20
2023-02-16T12:29:47.912Z,14.10
2023-02-16T12:32:30.359Z,14.00
2023-02-16T12:35:25.000Z,14.00
2023-02-16T12:38:03.758Z,14.00
2023-02-16T12:40:52.958Z,14.10
2023-02-16T12:43:35.502Z,14.30
2023-02-16T12:46:12.655Z,14.60
2023-02-16T12:48:46.761Z,14.80
2023-02-16T12:51:24.008Z,14.90
2023-02-16T12:53:59.508Z,15.20
2023-02-16T12:56:32.778Z,15.40
2023-02-16T12:59:18.929Z,15.50
2023-02-16T13:01:49.584Z,15.60
2023-02-16T13:04:25.484Z,15.60
2023-02-16T13:07:03.610Z,15.70
2023-02-16T13:09:43.183Z,15.70
2023-02-16T13:12:22.392Z,15.60
2023-02-16T13:15:03.475Z,15.60
2023-02-16T13:17:38.812Z,15.40
2023-02-16T13:20:17.289Z,15.30
2023-02-16T13:23:13.549Z,15.20
2023-02-16T13:26:15.364Z,15.10
2023-02-16T13:28:58.674Z,15.00
2023-02-16T13:31:44.016Z,15.00
2023-02-16T13:34:40.908Z,14.90
2023-02-16T13:37:22.508Z,14.80
2023-02-16T13:40:27.205Z,14.60
2023-02-16T13:43:22.141Z,14.40
2023-02-16T13:45:54.380Z,14.30
2023-02-16T13:48:28.108Z,14.10
2023-02-16T13:51:00.132Z,14.00
2023-02-16T13:53:38.087Z,13.90
2023-02-16T13:56:33.162Z,13.80
2023-02-16T13:59:38.578Z,13.70
2023-02-16T14:02:14.302Z,13.60
2023-02-16T14:05:02.133Z,13.50
2023-02-16T14:07:38.489Z,13.30
2023-02-16T14:10:14.203Z,13.20
2023-02-16T14:12:43.240Z,13.10
2023-02-16T14:15:22.990Z,13.00
2023-02-16T14:17:51.851Z,12.90
2023-02-16T14:20:31.101Z,12.90
2023-02-16T14:23:01.167Z,12.80
2023-02-16T14:25:36.978Z,12.70
2023-02-16T14:28:07.756Z,12.60
2023-02-16T14:30:46.445Z,12.50
2023-02-16T14:33:22.624Z,12.50
2023-02-16T14:36:09.293Z,12.40
2023-02-16T14:38:40.171Z,12.20
2023-02-16T14:41:16.135Z,12.10
2023-02-16T14:43:46.999Z,12.00
2023-02-16T14:46:48.662Z,11.90
2023-02-16T14:49:47.604Z,11.70
2023-02-16T14:52:38.447Z,11.50
2023-02-16T14:56:03.255Z,11.40
2023-02-16T14:58:37.359Z,11.10
2023-02-16T15:01:12.661Z,11.00
2023-02-16T15:03:46.647Z,10.90
2023-02-16T15:06:25.405Z,10.70
2023-02-16T15:09:00.460Z,10.70
2023-02-16T15:11:56.208Z,10.60
2023-02-16T15:14:27.219Z,10.40
2023-02-16T15:16:58.260Z,10.40
2023-02-16T15:19:32.658Z,10.30
2023-02-16T15:22:23.016Z,10.20
2023-02-16T15:25:00.106Z,10.10
2023-02-16T15:27:36.768Z,10.00
2023-02-16T15:30:24.187Z,9.90
2023-02-16T15:32:56.251Z,9.80
2023-02-16T15:35:34.602Z,9.70
2023-02-16T15:38:21.486Z,9.60
2023-02-16T15:40:55.120Z,9.50
2023-02-16T15:43:34.213Z,9.40
2023-02-16T15:46:09.068Z,9.30
2023-02-16T15:48:39.060Z,9.20
2023-02-16T15:51:15.650Z,9.10
2023-02-16T15:53:51.591Z,9.00
2023-02-16T15:56:36.134Z,8.90
2023-02-16T15:59:27.757Z,8.80
2023-02-16T16:02:03.155Z,8.70
2023-02-16T16:04:38.934Z,8.60
2023-02-16T16:07:14.872Z,8.50
2023-02-16T16:09:46.437Z,8.40
2023-02-16T16:12:19.308Z,8.40
2023-02-16T16:14:59.469Z,8.30
2023-02-16T16:17:31.793Z,8.20
2023-02-16T16:20:31.822Z,8.10
2023-02-16T16:23:05.093Z,8.10
2023-02-16T16:25:43.474Z,8.00
2023-02-16T16:28:15.357Z,7.90
2023-02-16T16:30:45.513Z,7.90
2023-02-16T16:33:16.707Z,7.80
2023-02-16T16:35:47.835Z,7.70
2023-02-16T16:38:27.872Z,7.70
2023-02-16T16:40:59.021Z,7.60
2023-02-16T16:43:32.794Z,7.50
2023-02-16T16:46:14.216Z,7.40
2023-02-16T16:48:48.177Z,7.40
2023-02-16T16:51:22.732Z,7.40
2023-02-16T16:54:00.762Z,7.30
2023-02-16T16:56:31.262Z,7.20
2023-02-16T16:59:01.648Z,7.20
2023-02-16T17:01:31.702Z,7.10
2023-02-16T17:04:01.127Z,7.00
2023-02-16T17:06:31.412Z,7.00
2023-02-16T17:09:02.811Z,6.90
2023-02-16T17:11:35.087Z,6.90
2023-02-16T17:14:10.774Z,6.80
2023-02-16T17:16:43.476Z,6.70
2023-02-16T17:19:14.122Z,6.70
2023-02-16T17:21:43.416Z,6.60
2023-02-16T17:24:14.015Z,6.50
2023-02-16T17:26:44.340Z,6.40
2023-02-16T17:29:13.506Z,6.40
2023-02-16T17:31:44.396Z,6.30
2023-02-16T17:34:14.648Z,6.20
2023-02-16T17:36:43.917Z,6.20
2023-02-16T17:39:15.719Z,6.10
2023-02-16T17:41:45.384Z,6.00
2023-02-16T17:44:14.362Z,5.90
2023-02-16T17:46:43.718Z,5.90
2023-02-16T17:49:14.050Z,5.90
2023-02-16T17:51:44.134Z,5.80
2023-02-16T17:54:15.582Z,5.80
2023-02-16T17:57:05.999Z,5.70
2023-02-16T17:59:37.190Z,5.70
2023-02-16T18:02:06.602Z,5.60
2023-02-16T18:04:42.140Z,5.60
2023-02-16T18:07:14.810Z,5.50
2023-02-16T18:09:45.800Z,5.50
2023-02-16T18:12:17.858Z,5.40
2023-02-16T18:14:47.090Z,5.40
2023-02-16T18:17:16.409Z,5.30
2023-02-16T18:19:45.926Z,5.20
2023-02-16T18:22:15.333Z,5.20
2023-02-16T18:24:45.674Z,5.10
2023-02-16T18:27:15.110Z,5.10
2023-02-16T18:29:45.121Z,5.00
2023-02-16T18:32:17.224Z,5.00
2023-02-16T18:34:46.888Z,4.90
2023-02-16T18:37:16.648Z,4.80
2023-02-16T18:39:48.847Z,4.80
2023-02-16T18:42:28.532Z,4.70
2023-02-16T18:45:16.302Z,4.70
2023-02-16T18:47:45.851Z,4.60
2023-02-16T18:50:14.925Z,4.60
2023-02-16T18:52:45.109Z,4.50
2023-02-16T18:55:20.611Z,4.50
2023-02-16T18:57:51.658Z,4.40
2023-02-16T19:00:23.080Z,4.40
2023-02-16T19:02:54.823Z,4.40
2023-02-16T19:05:25.212Z,4.30
2023-02-16T19:07:58.187Z,4.30
2023-02-16T19:10:28.757Z,4.30
2023-02-16T19:12:57.726Z,4.30
2023-02-16T19:15:28.391Z,4.30
2023-02-16T19:17:57.375Z,4.30
2023-02-16T19:20:26.244Z,4.30
2023-02-16T19:22:55.575Z,4.30
2023-02-16T19:25:24.774Z,4.20
2023-02-16T19:27:56.433Z,4.20
2023-02-16T19:30:25.608Z,4.20
2023-02-16T19:32:59.041Z,4.10
2023-02-16T19:35:28.650Z,4.10
2023-02-16T19:37:57.605Z,4.60
2023-02-16T19:40:28.211Z,4.00
2023-02-16T19:42:58.953Z,4.00
2023-02-16T19:45:28.337Z,3.90
2023-02-16T19:47:58.705Z,3.90
2023-02-16T19:50:27.642Z,3.90
2023-02-16T19:52:56.484Z,3.80
2023-02-16T19:55:25.567Z,3.80
2023-02-16T19:57:54.878Z,3.70
2023-02-16T20:00:25.275Z,3.60
2023-02-16T20:02:54.464Z,3.60
2023-02-16T20:05:23.613Z,3.60
2023-02-16T20:07:52.469Z,3.60
2023-02-16T20:10:28.562Z,3.50
2023-02-16T20:12:57.587Z,3.50
2023-02-16T20:15:28.190Z,3.40
2023-02-16T20:17:56.994Z,3.40
2023-02-16T20:20:25.956Z,3.40
2023-02-16T20:22:55.038Z,3.30
2023-02-16T20:25:23.897Z,3.30
2023-02-16T20:28:00.461Z,3.30
2023-02-16T20:30:31.137Z,3.30
2023-02-16T20:33:00.228Z,3.20
2023-02-16T20:35:29.237Z,3.20
2023-02-16T20:37:58.110Z,3.20
2023-02-16T20:40:27.069Z,3.20
2023-02-16T20:42:55.889Z,3.10
2023-02-16T20:45:25.157Z,3.10
2023-02-16T20:47:55.392Z,3.10
2023-02-16T20:50:24.426Z,3.00
2023-02-16T20:52:53.296Z,3.00
2023-02-16T20:55:22.602Z,3.00
2023-02-16T20:57:52.419Z,3.00
2023-02-16T21:00:24.213Z,2.90
2023-02-16T21:02:55.151Z,2.90
2023-02-16T21:05:25.026Z,2.80
2023-02-16T21:07:53.904Z,2.80
2023-02-16T21:10:22.752Z,2.80
2023-02-16T21:12:51.654Z,2.70
2023-02-16T21:15:20.737Z,2.70
2023-02-16T21:17:49.502Z,2.70
2023-02-16T21:20:19.815Z,2.60
2023-02-16T21:22:48.951Z,2.60
2023-02-16T21:25:18.102Z,2.60
2023-02-16T21:27:47.114Z,2.60
2023-02-16T21:30:16.761Z,2.60
2023-02-16T21:32:45.635Z,2.60
2023-02-16T21:35:14.478Z,2.50
2023-02-16T21:37:44.710Z,2.50
2023-02-16T21:40:32.513Z,2.50
2023-02-16T21:43:01.473Z,2.50
2023-02-16T21:45:30.377Z,2.50
2023-02-16T21:48:16.657Z,2.50
2023-02-16T21:50:45.577Z,2.50
2023-02-16T21:53:15.822Z,2.40
2023-02-16T21:56:01.966Z,2.40
2023-02-16T21:58:49.813Z,2.40
2023-02-16T22:01:23.308Z,2.40
2023-02-16T22:03:56.323Z,2.40
2023-02-16T22:06:26.506Z,2.40
2023-02-16T22:08:57.049Z,2.40
2023-02-16T22:11:26.284Z,2.30
2023-02-16T22:13:56.468Z,2.40
2023-02-16T22:16:46.552Z,2.30
2023-02-16T22:19:17.548Z,2.30
2023-02-16T22:21:48.129Z,2.30
2023-02-16T22:24:20.111Z,2.30
2023-02-16T22:26:51.183Z,2.30
2023-02-16T22:29:20.430Z,2.20
2023-02-16T22:31:50.868Z,2.20
2023-02-16T22:34:21.356Z,2.20
2023-02-16T22:36:50.603Z,2.20
2023-02-16T22:39:21.237Z,2.20
2023-02-16T22:41:51.190Z,2.10
2023-02-16T22:44:20.100Z,2.10
2023-02-16T22:46:49.065Z,2.10
2023-02-16T22:49:17.904Z,2.10
2023-02-16T22:52:05.633Z,2.10
2023-02-16T22:54:36.041Z,2.10
2023-02-16T22:57:07.335Z,2.00
2023-02-16T22:59:36.347Z,2.00
2023-02-16T23:02:05.123Z,2.00
2023-02-16T23:04:34.037Z,2.00
2023-02-16T23:07:02.856Z,2.00
2023-02-16T23:09:31.660Z,1.90
2023-02-16T23:12:02.280Z,1.90
2023-02-16T23:14:31.067Z,1.90
2023-02-16T23:17:00.336Z,1.90
2023-02-16T23:19:29.308Z,1.90
2023-02-16T23:21:58.060Z,1.90
2023-02-16T23:24:27.102Z,1.80
2023-02-16T23:26:56.546Z,1.80
2023-02-16T23:29:27.856Z,1.80
2023-02-16T23:31:56.772Z,1.80
2023-02-16T23:34:25.576Z,1.80
2023-02-16T23:36:54.409Z,1.90
2023-02-16T23:39:23.291Z,1.80
2023-02-16T23:41:52.071Z,1.90
2023-02-16T23:44:21.006Z,1.90
2023-02-16T23:46:51.441Z,1.90
2023-02-16T23:49:20.332Z,1.90
2023-02-16T23:51:49.098Z,1.90
2023-02-16T23:54:17.868Z,1.90
2023-02-16T23:56:46.812Z,1.90
2023-02-16T23:59:15.892Z,1.90
